Time;durP1;ratioP1;P1;durP2;ratioP2;P2;SDS_P1;SDS_P2;PMS_P1;PMS_P2;Temp;Humidity;BMP_temperature;BMP_pressure;BME280_temperature;BME280_humidity;BME280_pressure;Samples;Min_cycle;Max_cycle;Signal;HPM_P1;HPM_P2
2024/04/14 00:00:09;;;;;;;0.00;0.00;;;;;;;8.81;100.00;101083.00;6545056;21;20006;-78
2024/04/14 00:02:55;;;;;;;0.00;0.00;;;;;;;8.81;100.00;101087.63;6632821;21;20717;-77
2024/04/14 00:05:55;;;;;;;0.00;0.00;;;;;;;8.77;100.00;101087.25;6589657;21;19995;-77
2024/04/14 00:08:22;;;;;;;0.00;0.00;;;;;;;8.95;100.00;101126.38;6588090;21;20362;-78
2024/04/14 00:10:54;;;;;;;0.00;0.00;;;;;;;8.84;100.00;101108.97;6634334;21;19992;-78
2024/04/14 00:13:30;;;;;;;;;;;;;;;;;;;;;
2024/04/14 00:16:17;;;;;;;;;;;;;;;;;;;;;
2024/04/14 00:18:43;;;;;;;0.00;0.00;;;;;;;8.70;100.00;101094.72;6638716;21;19996;-76
2024/04/14 00:21:10;;;;;;;0.00;0.00;;;;;;;8.71;100.00;101089.03;6590645;21;20461;-77
2024/04/14 00:23:36;;;;;;;0.00;0.00;;;;;;;8.67;100.00;101087.88;6590127;21;20021;-77
2024/04/14 00:26:03;;;;;;;0.00;0.00;;;;;;;8.65;100.00;101100.09;6587351;21;19996;-78
2024/04/14 00:28:28;;;;;;;0.00;0.00;;;;;;;8.67;100.00;101108.84;6588008;21;20000;-76
2024/04/14 00:30:54;;;;;;;0.00;0.00;;;;;;;8.41;100.00;101083.69;6583956;21;20500;-77
2024/04/14 00:33:19;;;;;;;0.00;0.00;;;;;;;8.37;100.00;101104.28;6541076;21;20364;-78
2024/04/14 00:36:01;;;;;;;0.00;0.00;;;;;;;8.50;100.00;101139.53;6583104;21;19996;-77
2024/04/14 00:38:27;;;;;;;0.00;0.00;;;;;;;8.31;100.00;101127.00;6584450;21;20010;-77
2024/04/14 00:40:52;;;;;;;0.00;0.00;;;;;;;8.36;100.00;101129.88;6497080;21;19992;-77
2024/04/14 00:43:18;;;;;;;0.00;0.00;;;;;;;8.35;100.00;101134.50;6541210;21;20007;-76
2024/04/14 00:45:44;;;;;;;0.00;0.00;;;;;;;8.28;100.00;101131.06;6540865;21;20018;-77
2024/04/14 00:48:40;;;;;;;;;;;;;;;;;;;;;
2024/04/14 00:51:07;;;;;;;0.00;0.00;;;;;;;8.45;100.00;101150.28;6524861;22;20004;-76
2024/04/14 00:53:33;;;;;;;0.00;0.00;;;;;;;8.36;100.00;101138.06;6525835;22;20007;-78
2024/04/14 00:56:08;;;;;;;0.10;0.10;;;;;;;8.46;100.00;101159.31;6520475;22;20001;-76
2024/04/14 00:58:34;;;;;;;0.00;0.00;;;;;;;8.26;100.00;101141.34;6525798;22;20425;-75
2024/04/14 01:01:07;;;;;;;0.03;0.03;;;;;;;8.12;100.00;101123.53;6523777;21;20000;-75
2024/04/14 01:03:35;;;;;;;0.00;0.00;;;;;;;8.23;100.00;101162.78;6525519;22;20005;-76
2024/04/14 01:06:06;;;;;;;0.00;0.00;;;;;;;8.04;100.00;101136.44;6482641;22;20012;-76
2024/04/14 01:08:44;;;;;;;0.00;0.00;;;;;;;7.91;100.00;101127.59;6484795;22;20016;-78
2024/04/14 01:11:57;;;;;;;;;;;;;;;;;;;;;
2024/04/14 01:14:25;;;;;;;0.00;0.00;;;;;;;8.06;100.00;101128.03;6455279;22;20103;-76
2024/04/14 01:16:51;;;;;;;0.00;0.00;;;;;;;8.28;100.00;101157.44;6482179;22;20009;-78
2024/04/14 01:19:16;;;;;;;0.00;0.00;;;;;;;8.13;100.00;101120.59;6481329;22;20071;-77
2024/04/14 01:21:42;;;;;;;0.00;0.00;;;;;;;7.99;100.00;101091.88;6526741;22;20324;-76
2024/04/14 01:24:10;;;;;;;0.00;0.00;;;;;;;8.07;100.00;101110.59;6523828;22;20000;-78
2024/04/14 01:26:36;;;;;;;0.00;0.00;;;;;;;8.04;100.00;101116.53;6481504;22;20014;-77
2024/04/14 01:29:02;;;;;;;0.00;0.00;;;;;;;7.95;100.00;101115.19;6525176;22;20001;-76
2024/04/14 01:31:36;;;;;;;0.00;0.00;;;;;;;7.94;100.00;101132.59;6480492;22;20013;-76
2024/04/14 01:34:05;;;;;;;0.00;0.00;;;;;;;7.75;100.00;101097.22;6523413;22;20005;-76
2024/04/14 01:36:33;;;;;;;0.00;0.00;;;;;;;7.98;100.00;101125.63;6522877;22;19997;-76
2024/04/14 01:39:21;;;;;;;0.00;0.00;;;;;;;7.84;100.00;101111.34;6523663;22;19997;-77
2024/04/14 01:41:47;;;;;;;0.00;0.00;;;;;;;8.08;100.00;101161.31;6504262;22;20009;-77
2024/04/14 01:44:44;;;;;;;0.00;0.00;;;;;;;8.13;100.00;101158.72;6522974;22;20405;-78
2024/04/14 01:47:27;;;;;;;0.00;0.00;;;;;;;7.82;100.00;101118.94;6526055;22;20004;-77
2024/04/14 01:50:02;;;;;;;;;;;;;;;;;;;;;
2024/04/14 01:52:31;;;;;;;0.00;0.00;;;;;;;7.92;100.00;101145.63;6632492;21;20406;-76
2024/04/14 01:54:56;;;;;;;0.00;0.00;;;;;;;7.95;100.00;101161.50;6584202;21;20002;-77
2024/04/14 01:57:22;;;;;;;0.00;0.00;;;;;;;7.86;100.00;101158.25;6584231;21;20046;-75
2024/04/14 01:59:48;;;;;;;0.00;0.00;;;;;;;7.84;100.00;101152.19;6584928;21;20869;-75
2024/04/14 02:02:41;;;;;;;;;;;;;;;;;;;;;
2024/04/14 02:05:09;;;;;;;0.00;0.00;;;;;;;7.84;100.00;101161.22;6631529;21;19999;-77
2024/04/14 02:07:35;;;;;;;0.00;0.00;;;;;;;7.63;100.00;101126.31;6586428;21;19992;-77
2024/04/14 02:10:02;;;;;;;0.00;0.00;;;;;;;7.77;100.00;101144.13;6581971;21;20002;-78
2024/04/14 02:12:30;;;;;;;0.00;0.00;;;;;;;7.99;100.00;101181.78;6584432;21;19996;-77
2024/04/14 02:14:56;;;;;;;0.00;0.00;;;;;;;7.99;100.00;101174.41;6633432;21;20000;-78
2024/04/14 02:17:31;;;;;;;0.00;0.00;;;;;;;7.84;100.00;101150.31;6543835;21;19987;-76
2024/04/14 02:20:04;;;;;;;0.00;0.00;;;;;;;7.90;100.00;101172.22;6506194;21;20010;-76
2024/04/14 02:22:34;;;;;;;0.00;0.00;;;;;;;7.85;100.00;101179.19;6507214;21;19999;-77
2024/04/14 02:25:02;;;;;;;0.00;0.00;;;;;;;7.83;100.00;101186.78;6588862;21;20010;-77
2024/04/14 02:27:35;;;;;;;0.00;0.00;;;;;;;7.73;100.00;101170.16;6588662;21;20015;-77
2024/04/14 02:30:16;;;;;;;0.00;0.00;;;;;;;7.57;100.00;101140.84;6586463;21;20037;-75
2024/04/14 02:32:44;;;;;;;0.00;0.00;;;;;;;7.54;100.00;101138.56;6587303;21;19992;-76
2024/04/14 02:35:10;;;;;;;0.00;0.00;;;;;;;7.75;100.00;101172.66;6585266;21;19992;-75
2024/04/14 02:37:42;;;;;;;0.00;0.00;;;;;;;7.83;100.00;101196.84;6543307;21;20368;-75
2024/04/14 02:40:20;;;;;;;;;;;;;;;;;;;;;
2024/04/14 02:42:45;;;;;;;0.00;0.00;;;;;;;7.56;100.00;101139.16;6632103;21;20003;-76
2024/04/14 02:45:11;;;;;;;0.00;0.00;;;;;;;7.55;100.00;101134.78;6542697;21;19996;-76
2024/04/14 02:47:36;;;;;;;0.00;0.00;;;;;;;7.79;100.00;101182.03;6588332;21;20006;-75
2024/04/14 02:50:02;;;;;;;0.00;0.00;;;;;;;7.69;100.00;101161.63;6588198;21;20005;-77
2024/04/14 02:52:27;;;;;;;0.10;0.10;;;;;;;7.65;100.00;101162.28;6545347;21;20003;-76
2024/04/14 02:54:54;;;;;;;0.10;0.10;;;;;;;7.56;100.00;101155.50;6542534;21;20288;-77
2024/04/14 02:57:23;;;;;;;0.00;0.00;;;;;;;7.48;100.00;101145.75;6586925;21;20414;-77
2024/04/14 02:59:50;;;;;;;0.10;0.10;;;;;;;7.55;100.00;101179.19;6588395;21;20014;-77
2024/04/14 03:02:17;;;;;;;0.00;0.00;;;;;;;7.53;100.00;101175.00;6586010;21;19991;-77
2024/04/14 03:04:42;;;;;;;0.00;0.00;;;;;;;7.26;100.00;101139.94;6501527;21;19996;-75
2024/04/14 03:07:08;;;;;;;0.00;0.00;;;;;;;7.29;100.00;101142.22;6588860;21;20007;-76
2024/04/14 03:09:33;;;;;;;0.00;0.00;;;;;;;7.41;100.00;101156.72;6584905;21;20298;-77
2024/04/14 03:11:59;;;;;;;0.00;0.00;;;;;;;7.30;100.00;101143.84;6500664;21;20291;-75
2024/04/14 03:14:24;;;;;;;0.00;0.00;;;;;;;7.58;100.00;101169.69;6545753;21;19995;-75
2024/04/14 03:16:52;;;;;;;0.00;0.00;;;;;;;7.51;100.00;101145.31;6586233;21;20342;-76
2024/04/14 03:19:27;;;;;;;;;;;;;;;;;;;;;
2024/04/14 03:21:53;;;;;;;0.00;0.00;;;;;;;7.57;100.00;101162.63;6555123;21;20011;-76
2024/04/14 03:24:20;;;;;;;0.00;0.00;;;;;;;7.37;100.00;101136.44;6546351;21;19996;-77
2024/04/14 03:26:46;;;;;;;0.10;0.10;;;;;;;7.48;100.00;101165.63;6594426;21;20003;-76
2024/04/14 03:29:14;;;;;;;0.00;0.00;;;;;;;7.35;100.00;101154.91;6597420;21;19995;-75
2024/04/14 03:31:39;;;;;;;0.00;0.00;;;;;;;7.37;100.00;101160.94;6545987;21;20034;-76
2024/04/14 03:34:12;;;;;;;0.03;0.03;;;;;;;7.31;100.00;101156.41;6591389;21;19996;-76
2024/04/14 03:36:37;;;;;;;0.00;0.00;;;;;;;7.28;100.00;101157.69;6591722;21;20415;-77
2024/04/14 03:39:02;;;;;;;0.00;0.00;;;;;;;7.20;100.00;101149.00;6587974;21;20011;-75
2024/04/14 03:41:28;;;;;;;0.00;0.00;;;;;;;7.39;100.00;101175.16;6544292;21;20415;-77
2024/04/14 03:43:53;;;;;;;0.00;0.00;;;;;;;7.20;100.00;101133.53;6586824;21;19996;-76
2024/04/14 03:46:19;;;;;;;0.00;0.00;;;;;;;7.23;100.00;101134.94;6502212;21;19995;-75
2024/04/14 03:48:44;;;;;;;0.00;0.00;;;;;;;7.42;100.00;101172.00;6588248;21;19988;-76
2024/04/14 03:51:14;;;;;;;0.00;0.00;;;;;;;7.38;100.00;101162.59;6542445;21;20365;-76
2024/04/14 03:53:47;;;;;;;0.00;0.00;;;;;;;7.18;100.00;101142.97;6546777;21;20368;-76
2024/04/14 03:56:23;;;;;;;0.00;0.00;;;;;;;7.21;100.00;101151.47;6508034;21;19992;-76
2024/04/14 03:58:51;;;;;;;0.00;0.00;;;;;;;7.36;100.00;101180.22;6593617;21;20010;-77
2024/04/14 04:01:22;;;;;;;0.00;0.00;;;;;;;7.00;100.00;101128.28;6588521;21;20003;-76
2024/04/14 04:03:53;;;;;;;0.00;0.00;;;;;;;7.29;100.00;101174.84;6590053;21;20030;-76
2024/04/14 04:06:18;;;;;;;0.00;0.00;;;;;;;7.24;100.00;101171.97;6544420;21;20414;-76
2024/04/14 04:08:49;;;;;;;0.00;0.00;;;;;;;7.21;100.00;101172.44;6499381;21;19992;-76
2024/04/14 04:11:14;;;;;;;0.00;0.00;;;;;;;7.00;100.00;101150.03;6545442;21;19996;-75
2024/04/14 04:13:42;;;;;;;0.00;0.00;;;;;;;7.07;100.00;101158.97;6632140;21;20469;-77
2024/04/14 04:16:08;;;;;;;0.00;0.00;;;;;;;7.07;100.00;101172.56;6545958;21;20002;-77
2024/04/14 04:18:35;;;;;;;0.00;0.00;;;;;;;7.15;100.00;101180.44;6587504;21;20011;-76
2024/04/14 04:21:10;;;;;;;0.00;0.00;;;;;;;6.99;100.00;101153.81;6590553;21;20007;-77
2024/04/14 04:23:35;;;;;;;0.00;0.00;;;;;;;6.96;100.00;101165.13;6632975;21;20065;-76
2024/04/14 04:26:03;;;;;;;0.00;0.00;;;;;;;7.03;100.00;101182.22;6638037;21;20000;-76
2024/04/14 04:28:29;;;;;;;0.00;0.00;;;;;;;6.77;100.00;101150.66;6589487;21;20364;-77
2024/04/14 04:31:08;;;;;;;0.00;0.00;;;;;;;6.78;100.00;101153.16;6500868;21;20004;-77
2024/04/14 04:33:34;;;;;;;0.00;0.00;;;;;;;6.88;100.00;101162.69;6636011;21;20007;-77
2024/04/14 04:35:59;;;;;;;0.00;0.00;;;;;;;6.98;100.00;101174.75;6632338;21;20090;-75
2024/04/14 04:38:26;;;;;;;0.00;0.00;;;;;;;6.89;100.00;101156.22;6501681;21;20042;-76
2024/04/14 04:40:54;;;;;;;0.00;0.00;;;;;;;7.04;100.00;101173.00;6632214;21;20000;-77
2024/04/14 04:43:26;;;;;;;0.00;0.00;;;;;;;7.02;100.00;101172.38;6634129;21;19995;-76
2024/04/14 04:45:52;;;;;;;0.00;0.00;;;;;;;7.00;100.00;101163.63;6587315;21;20412;-77
2024/04/14 04:48:17;;;;;;;0.00;0.00;;;;;;;6.98;100.00;101168.47;6636181;21;19999;-78
2024/04/14 04:50:46;;;;;;;0.00;0.00;;;;;;;6.96;100.00;101159.69;6545713;21;20369;-77
2024/04/14 04:53:13;;;;;;;0.00;0.00;;;;;;;7.14;100.00;101194.25;6591310;21;19999;-77
2024/04/14 04:55:39;;;;;;;0.00;0.00;;;;;;;7.07;100.00;101188.06;6591338;21;20010;-77
2024/04/14 04:58:14;;;;;;;0.00;0.00;;;;;;;6.95;100.00;101163.47;6589773;21;19987;-78
2024/04/14 05:00:41;;;;;;;0.00;0.00;;;;;;;7.02;100.00;101177.00;6591361;21;19988;-77
2024/04/14 05:03:06;;;;;;;0.03;0.03;;;;;;;7.27;100.00;101215.03;6588882;21;20016;-78
2024/04/14 05:05:32;;;;;;;0.00;0.00;;;;;;;7.17;100.00;101199.25;6591344;21;19988;-78
2024/04/14 05:08:04;;;;;;;0.00;0.00;;;;;;;7.18;100.00;101200.06;6545333;21;20399;-77
2024/04/14 05:10:32;;;;;;;0.00;0.00;;;;;;;7.33;100.00;101230.50;6591668;21;20633;-79
2024/04/14 05:13:05;;;;;;;0.00;0.00;;;;;;;7.20;100.00;101200.69;6589887;21;19996;-78
2024/04/14 05:15:38;;;;;;;0.00;0.00;;;;;;;7.36;100.00;101224.59;6590420;21;20010;-76
2024/04/14 05:18:09;;;;;;;0.00;0.00;;;;;;;6.94;100.00;101156.38;6544415;21;20003;-76
2024/04/14 05:20:35;;;;;;;0.10;0.10;;;;;;;7.01;100.00;101165.31;6590406;21;20713;-78
2024/04/14 05:23:01;;;;;;;0.00;0.00;;;;;;;7.15;100.00;101191.31;6591611;21;20073;-78
2024/04/14 05:25:41;;;;;;;0.00;0.00;;;;;;;7.31;100.00;101227.16;6587564;21;20399;-78
2024/04/14 05:28:06;;;;;;;0.00;0.00;;;;;;;7.22;100.00;101223.06;6550530;21;20421;-76
2024/04/14 05:30:32;;;;;;;0.00;0.00;;;;;;;7.23;100.00;101213.81;6634139;21;19991;-75
2024/04/14 05:32:58;;;;;;;0.00;0.00;;;;;;;7.18;100.00;101211.78;6589819;21;20295;-77
2024/04/14 05:35:26;;;;;;;0.05;0.05;;;;;;;7.25;100.00;101222.59;6588224;21;20307;-76
2024/04/14 05:38:03;;;;;;;0.00;0.00;;;;;;;7.29;100.00;101218.38;6546084;21;20002;-76
2024/04/14 05:40:31;;;;;;;0.10;0.10;;;;;;;7.35;100.00;101222.94;6588469;21;19988;-78
2024/04/14 05:42:56;;;;;;;0.00;0.00;;;;;;;7.41;100.00;101232.09;6590803;21;20008;-76
2024/04/14 05:45:25;;;;;;;0.00;0.00;;;;;;;7.14;100.00;101189.66;6588515;21;20061;-76
2024/04/14 05:47:52;;;;;;;0.00;0.00;;;;;;;7.28;100.00;101211.28;6635303;21;20007;-76
2024/04/14 05:50:17;;;;;;;0.00;0.00;;;;;;;7.37;100.00;101230.88;6542342;21;19996;-76
2024/04/14 05:52:48;;;;;;;0.00;0.00;;;;;;;7.23;100.00;101200.22;6544805;21;19996;-73
2024/04/14 05:55:22;;;;;;;0.00;0.00;;;;;;;7.27;100.00;101215.03;6590641;21;20694;-74
2024/04/14 05:57:48;;;;;;;;;;;;;;;7.42;100.00;101240.03;6548631;21;20006;-74
2024/04/14 06:00:13;;;;;;;0.00;0.00;;;;;;;7.39;100.00;101242.34;6594666;21;19921;-75
2024/04/14 06:02:39;;;;;;;0.00;0.00;;;;;;;7.50;100.00;101252.50;6593132;21;20002;-75
2024/04/14 06:05:04;;;;;;;0.10;0.10;;;;;;;7.56;100.00;101257.03;6548571;21;19991;-75
2024/04/14 06:07:30;;;;;;;0.10;0.10;;;;;;;7.50;100.00;101236.16;6639054;21;19988;-74
2024/04/14 06:09:55;;;;;;;0.00;0.00;;;;;;;7.73;100.00;101268.16;6503723;21;19992;-75
2024/04/14 06:12:21;;;;;;;0.00;0.00;;;;;;;7.74;100.00;101256.22;6638896;21;20381;-75
2024/04/14 06:14:46;;;;;;;0.00;0.00;;;;;;;7.84;100.00;101259.25;6635537;21;20068;-76
2024/04/14 06:17:11;;;;;;;0.00;0.00;;;;;;;7.86;100.00;101262.56;6547224;21;19992;-75
2024/04/14 06:19:44;;;;;;;0.00;0.00;;;;;;;7.84;100.00;101270.13;6590840;21;20379;-75
2024/04/14 06:22:10;;;;;;;0.00;0.00;;;;;;;7.72;100.00;101247.44;6547772;21;20002;-75
2024/04/14 06:24:35;;;;;;;0.00;0.00;;;;;;;7.71;100.00;101245.78;6549723;21;19996;-75
2024/04/14 06:27:01;;;;;;;0.00;0.00;;;;;;;7.73;100.00;101240.13;6548950;21;19999;-75
2024/04/14 06:29:28;;;;;;;0.00;0.00;;;;;;;7.82;100.00;101250.47;6592746;21;20004;-75
2024/04/14 06:31:54;;;;;;;0.00;0.00;;;;;;;7.85;100.00;101247.28;6591802;21;20426;-75
2024/04/14 06:34:19;;;;;;;0.00;0.00;;;;;;;8.01;100.00;101247.72;6594623;21;19999;-75
2024/04/14 06:36:45;;;;;;;0.00;0.00;;;;;;;8.18;100.00;101243.31;6593566;21;20003;-75
2024/04/14 06:40:19;;;;;;;;;;;;;;;;;;;;;
2024/04/14 06:42:37;;;;;;;0.00;0.00;;;;;;;8.26;100.00;101222.25;6620738;21;19996;-74
2024/04/14 06:45:13;;;;;;;0.10;0.10;;;;;;;8.35;100.00;101220.84;6595924;21;20007;-75
2024/04/14 06:47:41;;;;;;;0.00;0.00;;;;;;;8.73;100.00;101253.25;6594687;21;19992;-75
2024/04/14 06:50:10;;;;;;;0.00;0.00;;;;;;;8.93;100.00;101270.38;6593423;21;20011;-75
2024/04/14 06:52:36;;;;;;;0.00;0.00;;;;;;;8.91;100.00;101251.53;6637052;21;20110;-75
2024/04/14 06:55:04;;;;;;;0.00;0.00;;;;;;;9.22;100.00;101291.28;6548428;21;19996;-76
2024/04/14 06:57:40;;;;;;;;;;;;;;;;;;;;;
2024/04/14 07:00:15;;;;;;;0.00;0.00;;;;;;;9.35;100.00;101273.03;6595764;21;19992;-74
2024/04/14 07:02:53;;;;;;;;;;;;;;;;;;;;;
2024/04/14 07:05:22;;;;;;;0.00;0.00;;;;;;;9.66;100.00;101290.13;6596460;21;20007;-74
2024/04/14 07:07:53;;;;;;;0.00;0.00;;;;;;;9.46;100.00;101250.34;6590546;21;20006;-79
2024/04/14 07:10:18;;;;;;;0.00;0.00;;;;;;;9.63;100.00;101257.81;6549397;21;19987;-75
2024/04/14 07:12:44;;;;;;;0.10;0.10;;;;;;;9.69;100.00;101252.22;6590158;21;19992;-76
2024/04/14 07:15:09;;;;;;;0.00;0.00;;;;;;;9.83;100.00;101266.47;6589745;21;20011;-75
2024/04/14 07:17:51;;;;;;;0.00;0.00;;;;;;;9.90;100.00;101278.09;6546580;21;19995;-75
2024/04/14 07:20:21;;;;;;;0.00;0.00;;;;;;;10.06;100.00;101295.63;6587969;21;19996;-75
2024/04/14 07:23:09;;;;;;;;;;;;;;;;;;;;;
2024/04/14 07:25:38;;;;;;;0.00;0.00;;;;;;;10.12;100.00;101280.19;6595277;21;19995;-76
2024/04/14 07:28:08;;;;;;;0.00;0.00;;;;;;;9.92;100.00;101232.22;6591551;21;20008;-76
2024/04/14 07:30:36;;;;;;;0.00;0.00;;;;;;;10.33;100.00;101299.72;6547309;21;20411;-76
2024/04/14 07:33:26;;;;;;;0.00;0.00;;;;;;;10.36;99.81;101297.34;6548534;21;19996;-76
2024/04/14 07:35:59;;;;;;;0.00;0.00;;;;;;;10.45;99.94;101292.34;6589314;21;19996;-77
2024/04/14 07:38:55;;;;;;;;;;;;;;;;;;;;;
2024/04/14 07:41:31;;;;;;;0.00;0.00;;;;;;;10.56;98.12;101247.69;6616371;21;20007;-76
2024/04/14 07:43:57;;;;;;;0.00;0.00;;;;;;;10.88;97.60;101252.63;6590221;21;20007;-76
2024/04/14 07:46:35;;;;;;;;;;;;;;;;;;;;;
2024/04/14 07:49:12;;;;;;;;;;;;;;;;;;;;;
2024/04/14 07:51:51;;;;;;;0.00;0.00;;;;;;;12.03;92.53;101265.84;6639285;21;20003;-76
2024/04/14 07:54:47;;;;;;;0.00;0.00;;;;;;;12.38;90.42;101274.72;6545908;21;20003;-75
2024/04/14 07:57:13;;;;;;;0.00;0.00;;;;;;;12.47;88.44;101244.91;6589449;21;20000;-75
2024/04/14 07:59:56;;;;;;;;;;;;;;;;;;;;;
2024/04/14 08:02:58;;;;;;;;;;;;;;;;;;;;;
2024/04/14 08:05:33;;;;;;;0.00;0.00;;;;;;;13.18;84.04;101249.38;6597295;21;20402;-74
2024/04/14 08:08:12;;;;;;;0.00;0.00;;;;;;;13.49;82.53;101246.88;6588667;21;20000;-74
2024/04/14 08:14:00;;;;;;;;;;;;;;;;;;;;;
2024/04/14 08:16:51;;;;;;;;;;;;;;;;;;;;;
2024/04/14 08:19:25;;;;;;;0.00;0.00;;;;;;;14.59;75.26;101234.09;6636075;21;19999;-75
2024/04/14 08:22:00;;;;;;;;;;;;;;;;;;;;;
2024/04/14 08:24:44;;;;;;;0.00;0.00;;;;;;;15.33;71.55;101271.31;6636921;21;19995;-76
2024/04/14 08:27:09;;;;;;;0.00;0.00;;;;;;;15.78;70.18;101284.44;6588525;21;20072;-77
2024/04/14 08:30:25;;;;;;;;;;;;;;;;;;;;;
2024/04/14 08:32:53;;;;;;;0.00;0.00;;;;;;;16.51;64.75;101266.47;6472211;21;20006;-77
2024/04/14 08:35:21;;;;;;;0.10;0.10;;;;;;;17.40;61.38;101271.88;6543786;21;20316;-76
2024/04/14 08:37:55;;;;;;;0.00;0.00;;;;;;;17.99;56.20;101259.91;6588391;21;19995;-75
2024/04/14 08:40:23;;;;;;;;;;;;;;;18.00;55.45;101281.75;6549136;21;20010;-75
2024/04/14 08:42:49;;;;;;;0.00;0.00;;;;;;;19.14;52.79;101250.50;6545235;21;19930;-74
2024/04/14 08:45:29;;;;;;;;;;;;;;;;;;;;;
2024/04/14 08:47:59;;;;;;;0.00;0.00;;;;;;;18.94;49.24;101246.94;6634112;21;19996;-76
2024/04/14 08:50:25;;;;;;;0.10;0.10;;;;;;;18.69;50.51;101283.34;6545210;21;20008;-75
2024/04/14 08:53:00;;;;;;;0.00;0.00;;;;;;;18.58;50.25;101266.88;6590659;21;20028;-75
2024/04/14 08:55:25;;;;;;;0.00;0.00;;;;;;;19.30;49.68;101265.75;6587122;21;20449;-75
2024/04/14 08:57:51;;;;;;;0.00;0.00;;;;;;;21.18;45.82;101287.31;6634211;21;19992;-76
2024/04/14 09:00:20;;;;;;;0.00;0.00;;;;;;;21.31;43.96;101266.94;6590848;21;20000;-76
2024/04/14 09:02:48;;;;;;;0.00;0.00;;;;;;;22.34;42.34;101283.59;6588871;21;20023;-76
2024/04/14 09:05:29;;;;;;;0.00;0.00;;;;;;;24.34;40.20;101263.91;6591294;21;20000;-77
2024/04/14 09:08:23;;;;;;;;;;;;;;;;;;;;;
2024/04/14 09:14:09;;;;;;;0.00;0.00;;;;;;;24.48;35.46;101278.41;6516749;21;20014;-77
2024/04/14 09:17:01;;;;;;;0.00;0.00;;;;;;;24.78;34.67;101233.66;6590815;21;19991;-77
2024/04/14 09:19:29;;;;;;;0.00;0.00;;;;;;;26.42;31.86;101244.31;6572226;21;20309;-77
2024/04/14 09:21:58;;;;;;;0.00;0.00;;;;;;;26.69;30.18;101281.16;6633273;21;19996;-78
2024/04/14 09:24:29;;;;;;;0.00;0.00;;;;;;;26.47;30.04;101246.84;6546771;21;20046;-75
2024/04/14 09:27:04;;;;;;;0.00;0.00;;;;;;;27.94;28.11;101252.81;6589098;21;20039;-76
2024/04/14 09:29:56;;;;;;;0.00;0.00;;;;;;;30.14;26.24;101287.28;6589734;21;20010;-77
2024/04/14 09:32:27;;;;;;;0.00;0.00;;;;;;;31.40;23.34;101280.44;6590233;21;20069;-78
2024/04/14 09:34:54;;;;;;;0.00;0.00;;;;;;;31.85;22.07;101284.09;6546499;21;20003;-75
2024/04/14 09:37:46;;;;;;;0.00;0.00;;;;;;;33.57;21.53;101230.16;6590763;21;20003;-77
2024/04/14 09:40:12;;;;;;;0.00;0.00;;;;;;;35.33;19.68;101259.19;6589348;21;19995;-74
2024/04/14 09:42:48;;;;;;;0.00;0.00;;;;;;;35.08;20.10;101250.81;6591163;21;20046;-74
2024/04/14 09:45:15;;;;;;;0.00;0.00;;;;;;;33.35;20.83;101234.19;6591646;21;20041;-77
2024/04/14 09:47:44;;;;;;;0.00;0.00;;;;;;;31.67;22.37;101248.00;6593119;21;19996;-77
2024/04/14 09:50:47;;;;;;;;;;;;;;;;;;;;;
2024/04/14 09:53:33;;;;;;;0.00;0.00;;;;;;;34.78;16.86;101233.13;6542745;22;20305;-76
2024/04/14 09:56:07;;;;;;;0.00;0.00;;;;;;;35.77;17.64;101239.69;6531306;22;19997;-75
2024/04/14 09:58:36;;;;;;;0.00;0.00;;;;;;;36.49;16.86;101236.09;6491274;22;20063;-75
2024/04/14 10:02:00;;;;;;;0.00;0.00;;;;;;;35.89;17.50;101230.66;6525480;22;20033;-74
2024/04/14 10:04:35;;;;;;;0.00;0.00;;;;;;;33.98;18.70;101247.97;6510182;22;20071;-75
2024/04/14 10:07:05;;;;;;;0.00;0.00;;;;;;;31.58;20.08;101250.34;6528356;22;19998;-74
2024/04/14 10:09:49;;;;;;;0.00;0.00;;;;;;;29.18;21.66;101238.16;6530808;22;20009;-75
2024/04/14 10:12:43;;;;;;;;;;;;;;;27.93;22.58;101250.38;6530968;21;20009;-75
2024/04/14 10:15:33;;;;;;;;;;;;;;;;;;;;;
2024/04/14 10:18:37;;;;;;;;;;;;;;;;;;;;;
2024/04/14 10:21:13;;;;;;;0.00;0.00;;;;;;;28.77;22.18;101245.41;6527321;22;20009;-75
2024/04/14 10:24:17;;;;;;;0.00;0.00;;;;;;;29.20;21.63;101202.00;6530407;22;20005;-79
2024/04/14 10:26:44;;;;;;;0.00;0.00;;;;;;;30.83;20.65;101205.19;6528160;22;20001;-76
2024/04/14 11:27:50;;;;;;;0.00;0.00;;;;;;;26.34;22.47;101135.91;6586574;21;19992;-77
2024/04/14 11:30:25;;;;;;;;;;;;;;;;;;;;;
2024/04/14 11:33:13;;;;;;;0.00;0.00;;;;;;;27.27;23.31;101157.25;6583795;21;20412;-78
2024/04/14 11:35:51;;;;;;;;;;;;;;;;;;;;;
2024/04/14 11:38:24;;;;;;;0.00;0.00;;;;;;;30.58;20.58;101154.13;6585213;21;20522;-75
2024/04/14 11:41:02;;;;;;;0.00;0.00;;;;;;;31.03;19.40;101169.13;6500152;21;20028;-77
2024/04/14 11:43:27;;;;;;;0.00;0.00;;;;;;;30.25;20.30;101158.53;6539051;21;20016;-76
2024/04/14 11:45:52;;;;;;;0.00;0.00;;;;;;;30.92;20.17;101157.69;6491083;21;20299;-77
2024/04/14 11:48:27;;;;;;;0.00;0.00;;;;;;;31.56;19.27;101161.47;6539133;21;19997;-78
2024/04/14 11:51:02;;;;;;;0.00;0.00;;;;;;;31.29;18.80;101161.66;6538731;21;20011;-77
2024/04/14 11:53:28;;;;;;;0.00;0.00;;;;;;;30.33;20.54;101157.44;6583887;21;20070;-78
2024/04/14 11:55:55;;;;;;;0.00;0.00;;;;;;;28.52;21.28;101127.56;6538366;21;20036;-77
2024/04/14 11:58:32;;;;;;;;;;;;;;;;;;;;;
2024/04/14 12:01:25;;;;;;;0.00;0.00;;;;;;;28.39;21.59;101110.84;6580463;21;20000;-77
2024/04/14 12:03:50;;;;;;;0.00;0.00;;;;;;;27.89;21.35;101140.69;6540256;21;20043;-77
2024/04/14 12:06:34;;;;;;;0.00;0.00;;;;;;;27.27;22.14;101127.19;6582714;21;19992;-77
2024/04/14 12:09:00;;;;;;;0.00;0.00;;;;;;;26.19;22.07;101110.28;6497646;21;20000;-77
2024/04/14 12:11:38;;;;;;;0.00;0.00;;;;;;;25.15;24.15;101087.44;6537156;21;20006;-78
2024/04/14 12:14:03;;;;;;;0.00;0.00;;;;;;;24.32;25.11;101098.53;6535801;21;20000;-77
2024/04/14 12:16:29;;;;;;;0.00;0.00;;;;;;;23.34;25.95;101102.38;6534002;21;20001;-77
2024/04/14 12:18:59;;;;;;;0.00;0.00;;;;;;;22.58;26.60;101088.03;6535751;21;20069;-78
2024/04/14 12:21:34;;;;;;;0.00;0.00;;;;;;;22.77;27.98;101115.50;6534189;21;19992;-76
2024/04/14 12:24:03;;;;;;;0.00;0.00;;;;;;;22.55;27.95;101087.88;6536083;21;19996;-76
2024/04/14 12:26:37;;;;;;;0.00;0.00;;;;;;;22.81;28.18;101077.47;6578853;21;19996;-77
2024/04/14 12:29:06;;;;;;;0.00;0.00;;;;;;;23.20;27.66;101124.09;6536807;21;19997;-77
2024/04/14 12:31:59;;;;;;;0.00;0.00;;;;;;;22.19;27.75;101089.03;6583683;21;20004;-77
2024/04/14 12:35:24;;;;;;;;;;;;;;;;;;;;;
2024/04/14 12:38:04;;;;;;;0.00;0.00;;;;;;;22.96;27.62;101069.69;6566912;21;19999;-78
2024/04/14 12:41:03;;;;;;;0.00;0.00;;;;;;;23.86;25.48;101065.75;6498780;21;20004;-77
2024/04/14 12:44:04;;;;;;;;;;;;;;;;;;;;;
2024/04/14 12:57:31;;;;;;;0.00;0.00;;;;;;;26.01;24.78;101087.34;6474887;22;20068;-77
2024/04/14 13:00:22;;;;;;;0.00;0.00;;;;;;;26.09;24.00;101040.72;6444963;22;20000;-77
2024/04/14 16:31:05;;;;;;;0.00;0.00;;;;;;;14.31;47.32;100848.34;6373352;22;19934;-80
2024/04/14 16:51:23;;;;;;;;;;;;;;;;;;;;;
2024/04/14 17:04:59;;;;;;;;;;;;;;;;;;;;;
2024/04/14 17:11:46;;;;;;;0.00;0.00;;;;;;;13.29;50.00;100828.16;5960352;23;20017;-77
2024/04/14 17:15:13;;;;;;;0.00;0.00;;;;;;;13.18;49.56;100755.09;5923753;23;20015;-77
2024/04/14 17:17:28;;;;;;;;;;;;;;;13.72;48.59;100817.69;6115338;23;20041;-78
2024/04/14 17:20:00;;;;;;;0.00;0.00;;;;;;;13.95;48.94;100763.22;6176357;22;20565;-77
2024/04/14 18:39:19;;;;;;;0.00;0.00;;;;;;;11.18;52.82;100765.03;6581807;21;20043;-77
2024/04/14 18:41:56;;;;;;;;;;;;;;;;;;;;;
2024/04/14 18:44:31;;;;;;;0.00;0.00;;;;;;;10.10;55.17;100702.97;6582235;21;19997;-76
2024/04/14 18:47:04;;;;;;;0.10;0.10;;;;;;;10.25;56.26;100766.03;6585352;21;20012;-78
2024/04/14 18:49:29;;;;;;;0.10;0.10;;;;;;;9.73;57.28;100711.81;6498179;21;20035;-77
2024/04/14 18:51:57;;;;;;;0.00;0.00;;;;;;;9.81;58.37;100763.25;6535308;21;19992;-77
2024/04/14 18:54:26;;;;;;;0.00;0.00;;;;;;;9.37;58.86;100725.78;6584153;21;19993;-78
2024/04/14 18:59:37;;;;;;;0.00;0.00;;;;;;;9.17;61.46;100736.41;6547424;21;20485;-77
2024/04/14 19:02:15;;;;;;;0.00;0.00;;;;;;;8.97;61.97;100720.56;6487528;21;19990;-75
2024/04/14 19:04:43;;;;;;;0.00;0.00;;;;;;;8.93;62.92;100735.75;6538369;21;20020;-74
2024/04/14 19:07:11;;;;;;;0.00;0.00;;;;;;;8.90;63.32;100737.88;6538640;21;20007;-76
2024/04/14 19:09:53;;;;;;;0.00;0.00;;;;;;;8.35;64.27;100675.84;6535877;21;20047;-75
2024/04/14 19:27:30;;;;;;;;;;;;;;;;;;;;;
2024/04/14 19:40:01;;;;;;;0.00;0.00;;;;;;;7.62;70.40;100749.00;6065489;23;20399;-74